sensor_id;sensor_type;location;lat;lon;timestamp;P1;durP1;ratioP1;P2;durP2;ratioP2
7501;SDS011;3792;47.740;7.606;2023-08-30T00:01:10;2.23;;;2.10;;
7501;SDS011;3792;47.740;7.606;2023-08-30T00:03:37;2.10;;;2.00;;
7501;SDS011;3792;47.740;7.606;2023-08-30T00:06:06;2.30;;;2.20;;
7501;SDS011;3792;47.740;7.606;2023-08-30T00:08:34;2.33;;;1.93;;
7501;SDS011;3792;47.740;7.606;2023-08-30T00:11:01;2.30;;;2.17;;
7501;SDS011;3792;47.740;7.606;2023-08-30T00:13:29;2.10;;;2.00;;
7501;SDS011;3792;47.740;7.606;2023-08-30T00:15:57;2.87;;;2.20;;
7501;SDS011;3792;47.740;7.606;2023-08-30T00:18:24;2.13;;;2.03;;
7501;SDS011;3792;47.740;7.606;2023-08-30T00:20:51;1.97;;;1.87;;
7501;SDS011;3792;47.740;7.606;2023-08-30T00:23:19;2.00;;;1.90;;
7501;SDS011;3792;47.740;7.606;2023-08-30T00:25:46;2.33;;;2.20;;
7501;SDS011;3792;47.740;7.606;2023-08-30T00:28:13;3.07;;;2.20;;
7501;SDS011;3792;47.740;7.606;2023-08-30T00:30:41;2.10;;;2.00;;
7501;SDS011;3792;47.740;7.606;2023-08-30T00:33:08;2.10;;;2.00;;
7501;SDS011;3792;47.740;7.606;2023-08-30T00:35:35;2.10;;;2.00;;
7501;SDS011;3792;47.740;7.606;2023-08-30T00:38:02;2.23;;;2.00;;
7501;SDS011;3792;47.740;7.606;2023-08-30T00:40:32;2.00;;;1.90;;
7501;SDS011;3792;47.740;7.606;2023-08-30T00:43:04;3.73;;;2.17;;
7501;SDS011;3792;47.740;7.606;2023-08-30T00:45:31;2.07;;;1.97;;
7501;SDS011;3792;47.740;7.606;2023-08-30T00:47:58;4.20;;;2.60;;
7501;SDS011;3792;47.740;7.606;2023-08-30T00:50:25;3.37;;;2.10;;
7501;SDS011;3792;47.740;7.606;2023-08-30T00:52:53;2.30;;;2.13;;
7501;SDS011;3792;47.740;7.606;2023-08-30T00:55:20;2.23;;;2.03;;
7501;SDS011;3792;47.740;7.606;2023-08-30T00:57:48;2.50;;;2.30;;
7501;SDS011;3792;47.740;7.606;2023-08-30T01:00:15;2.00;;;1.90;;
7501;SDS011;3792;47.740;7.606;2023-08-30T01:02:43;2.37;;;2.10;;
7501;SDS011;3792;47.740;7.606;2023-08-30T01:05:10;2.87;;;1.90;;
7501;SDS011;3792;47.740;7.606;2023-08-30T01:07:38;2.30;;;2.10;;
7501;SDS011;3792;47.740;7.606;2023-08-30T01:10:05;3.70;;;2.00;;
7501;SDS011;3792;47.740;7.606;2023-08-30T01:12:34;3.80;;;2.20;;
7501;SDS011;3792;47.740;7.606;2023-08-30T01:15:08;3.13;;;2.20;;
7501;SDS011;3792;47.740;7.606;2023-08-30T01:17:38;2.90;;;2.33;;
7501;SDS011;3792;47.740;7.606;2023-08-30T01:20:08;2.43;;;2.23;;
7501;SDS011;3792;47.740;7.606;2023-08-30T01:22:42;3.10;;;2.30;;
7501;SDS011;3792;47.740;7.606;2023-08-30T01:25:19;2.23;;;2.10;;
7501;SDS011;3792;47.740;7.606;2023-08-30T01:27:58;2.93;;;2.10;;
7501;SDS011;3792;47.740;7.606;2023-08-30T01:30:30;2.37;;;2.20;;
7501;SDS011;3792;47.740;7.606;2023-08-30T01:33:00;3.53;;;2.70;;
7501;SDS011;3792;47.740;7.606;2023-08-30T01:35:28;2.40;;;2.20;;
7501;SDS011;3792;47.740;7.606;2023-08-30T01:37:58;4.50;;;2.53;;
7501;SDS011;3792;47.740;7.606;2023-08-30T01:40:28;2.23;;;2.13;;
7501;SDS011;3792;47.740;7.606;2023-08-30T01:42:56;2.80;;;2.60;;
7501;SDS011;3792;47.740;7.606;2023-08-30T01:45:26;2.53;;;2.33;;
7501;SDS011;3792;47.740;7.606;2023-08-30T01:47:54;2.60;;;2.40;;
7501;SDS011;3792;47.740;7.606;2023-08-30T01:50:22;2.77;;;2.57;;
7501;SDS011;3792;47.740;7.606;2023-08-30T01:52:50;3.03;;;2.73;;
7501;SDS011;3792;47.740;7.606;2023-08-30T01:55:18;4.87;;;2.50;;
7501;SDS011;3792;47.740;7.606;2023-08-30T01:57:48;4.03;;;2.30;;
7501;SDS011;3792;47.740;7.606;2023-08-30T02:00:16;2.30;;;2.20;;
7501;SDS011;3792;47.740;7.606;2023-08-30T02:02:44;4.93;;;2.30;;
7501;SDS011;3792;47.740;7.606;2023-08-30T02:05:11;2.87;;;2.33;;
7501;SDS011;3792;47.740;7.606;2023-08-30T02:07:39;2.63;;;2.43;;
7501;SDS011;3792;47.740;7.606;2023-08-30T02:10:26;2.67;;;2.17;;
7501;SDS011;3792;47.740;7.606;2023-08-30T02:12:57;2.10;;;2.00;;
7501;SDS011;3792;47.740;7.606;2023-08-30T02:15:27;2.27;;;2.17;;
7501;SDS011;3792;47.740;7.606;2023-08-30T02:17:58;2.47;;;2.27;;
7501;SDS011;3792;47.740;7.606;2023-08-30T02:20:27;2.00;;;1.90;;
7501;SDS011;3792;47.740;7.606;2023-08-30T02:22:57;3.17;;;2.03;;
7501;SDS011;3792;47.740;7.606;2023-08-30T02:25:25;2.23;;;2.13;;
7501;SDS011;3792;47.740;7.606;2023-08-30T02:27:52;4.57;;;2.30;;
7501;SDS011;3792;47.740;7.606;2023-08-30T02:30:19;3.37;;;2.17;;
7501;SDS011;3792;47.740;7.606;2023-08-30T02:32:47;2.53;;;2.33;;
7501;SDS011;3792;47.740;7.606;2023-08-30T02:35:14;3.00;;;2.20;;
7501;SDS011;3792;47.740;7.606;2023-08-30T02:37:41;2.97;;;2.20;;
7501;SDS011;3792;47.740;7.606;2023-08-30T02:40:10;2.73;;;2.53;;
7501;SDS011;3792;47.740;7.606;2023-08-30T02:42:37;2.90;;;2.40;;
7501;SDS011;3792;47.740;7.606;2023-08-30T02:45:05;2.50;;;2.40;;
7501;SDS011;3792;47.740;7.606;2023-08-30T02:47:32;2.30;;;2.20;;
7501;SDS011;3792;47.740;7.606;2023-08-30T02:50:01;3.90;;;2.40;;
7501;SDS011;3792;47.740;7.606;2023-08-30T02:52:28;2.50;;;2.30;;
7501;SDS011;3792;47.740;7.606;2023-08-30T02:54:55;2.57;;;2.37;;
7501;SDS011;3792;47.740;7.606;2023-08-30T02:57:22;3.40;;;2.80;;
7501;SDS011;3792;47.740;7.606;2023-08-30T02:59:50;3.03;;;2.40;;
7501;SDS011;3792;47.740;7.606;2023-08-30T03:02:17;3.33;;;2.60;;
7501;SDS011;3792;47.740;7.606;2023-08-30T03:04:44;2.83;;;2.60;;
7501;SDS011;3792;47.740;7.606;2023-08-30T03:07:12;2.23;;;2.13;;
7501;SDS011;3792;47.740;7.606;2023-08-30T03:09:39;3.37;;;2.67;;
7501;SDS011;3792;47.740;7.606;2023-08-30T03:12:06;3.10;;;2.53;;
7501;SDS011;3792;47.740;7.606;2023-08-30T03:14:33;3.27;;;2.87;;
7501;SDS011;3792;47.740;7.606;2023-08-30T03:17:00;4.57;;;2.97;;
7501;SDS011;3792;47.740;7.606;2023-08-30T03:19:27;3.53;;;2.80;;
7501;SDS011;3792;47.740;7.606;2023-08-30T03:21:55;4.23;;;2.57;;
7501;SDS011;3792;47.740;7.606;2023-08-30T03:24:23;4.30;;;3.10;;
7501;SDS011;3792;47.740;7.606;2023-08-30T03:26:50;2.77;;;2.57;;
7501;SDS011;3792;47.740;7.606;2023-08-30T03:29:17;2.07;;;1.97;;
7501;SDS011;3792;47.740;7.606;2023-08-30T03:31:44;3.53;;;2.60;;
7501;SDS011;3792;47.740;7.606;2023-08-30T03:34:11;2.30;;;2.20;;
7501;SDS011;3792;47.740;7.606;2023-08-30T03:36:40;2.57;;;2.27;;
7501;SDS011;3792;47.740;7.606;2023-08-30T03:39:09;2.43;;;2.00;;
7501;SDS011;3792;47.740;7.606;2023-08-30T03:41:38;3.37;;;2.40;;
7501;SDS011;3792;47.740;7.606;2023-08-30T03:44:06;2.70;;;2.57;;
7501;SDS011;3792;47.740;7.606;2023-08-30T03:46:33;5.53;;;2.80;;
7501;SDS011;3792;47.740;7.606;2023-08-30T03:49:00;3.90;;;2.80;;
7501;SDS011;3792;47.740;7.606;2023-08-30T03:51:27;3.10;;;2.63;;
7501;SDS011;3792;47.740;7.606;2023-08-30T03:53:54;4.40;;;2.57;;
7501;SDS011;3792;47.740;7.606;2023-08-30T03:56:21;3.83;;;2.77;;
7501;SDS011;3792;47.740;7.606;2023-08-30T03:58:50;3.03;;;2.73;;
7501;SDS011;3792;47.740;7.606;2023-08-30T04:01:17;2.80;;;2.60;;
7501;SDS011;3792;47.740;7.606;2023-08-30T04:03:44;4.77;;;2.80;;
7501;SDS011;3792;47.740;7.606;2023-08-30T04:06:11;2.87;;;2.50;;
7501;SDS011;3792;47.740;7.606;2023-08-30T04:08:38;3.00;;;2.70;;
7501;SDS011;3792;47.740;7.606;2023-08-30T04:11:05;4.10;;;2.70;;
7501;SDS011;3792;47.740;7.606;2023-08-30T04:13:32;2.90;;;2.70;;
7501;SDS011;3792;47.740;7.606;2023-08-30T04:16:01;2.47;;;2.37;;
7501;SDS011;3792;47.740;7.606;2023-08-30T04:18:29;3.90;;;2.90;;
7501;SDS011;3792;47.740;7.606;2023-08-30T04:20:56;3.00;;;2.80;;
7501;SDS011;3792;47.740;7.606;2023-08-30T04:23:24;3.60;;;2.30;;
7501;SDS011;3792;47.740;7.606;2023-08-30T04:25:52;2.70;;;2.50;;
7501;SDS011;3792;47.740;7.606;2023-08-30T04:28:19;3.27;;;2.63;;
7501;SDS011;3792;47.740;7.606;2023-08-30T04:30:46;3.17;;;2.27;;
7501;SDS011;3792;47.740;7.606;2023-08-30T04:33:14;3.03;;;2.83;;
7501;SDS011;3792;47.740;7.606;2023-08-30T04:35:41;4.30;;;2.67;;
7501;SDS011;3792;47.740;7.606;2023-08-30T04:38:08;3.03;;;2.83;;
7501;SDS011;3792;47.740;7.606;2023-08-30T04:40:35;4.00;;;3.13;;
7501;SDS011;3792;47.740;7.606;2023-08-30T04:43:02;3.43;;;3.03;;
7501;SDS011;3792;47.740;7.606;2023-08-30T04:45:29;3.93;;;3.03;;
7501;SDS011;3792;47.740;7.606;2023-08-30T04:47:56;3.77;;;2.90;;
7501;SDS011;3792;47.740;7.606;2023-08-30T04:50:25;4.20;;;3.00;;
7501;SDS011;3792;47.740;7.606;2023-08-30T04:52:52;3.53;;;3.20;;
7501;SDS011;3792;47.740;7.606;2023-08-30T04:55:19;6.10;;;2.77;;
7501;SDS011;3792;47.740;7.606;2023-08-30T04:57:47;3.07;;;2.80;;
7501;SDS011;3792;47.740;7.606;2023-08-30T05:00:14;4.33;;;2.93;;
7501;SDS011;3792;47.740;7.606;2023-08-30T05:02:42;3.47;;;3.00;;
7501;SDS011;3792;47.740;7.606;2023-08-30T05:05:11;3.10;;;2.80;;
7501;SDS011;3792;47.740;7.606;2023-08-30T05:07:40;2.80;;;2.60;;
7501;SDS011;3792;47.740;7.606;2023-08-30T05:10:07;2.80;;;2.60;;
7501;SDS011;3792;47.740;7.606;2023-08-30T05:12:35;3.47;;;2.33;;
7501;SDS011;3792;47.740;7.606;2023-08-30T05:15:03;2.87;;;2.67;;
7501;SDS011;3792;47.740;7.606;2023-08-30T05:17:30;2.83;;;2.63;;
7501;SDS011;3792;47.740;7.606;2023-08-30T05:19:58;3.07;;;2.77;;
7501;SDS011;3792;47.740;7.606;2023-08-30T05:22:25;2.87;;;2.53;;
7501;SDS011;3792;47.740;7.606;2023-08-30T05:24:53;3.17;;;2.30;;
7501;SDS011;3792;47.740;7.606;2023-08-30T05:27:20;2.93;;;2.47;;
7501;SDS011;3792;47.740;7.606;2023-08-30T05:29:48;4.83;;;2.30;;
7501;SDS011;3792;47.740;7.606;2023-08-30T05:32:15;2.80;;;2.47;;
7501;SDS011;3792;47.740;7.606;2023-08-30T05:34:42;2.23;;;2.13;;
7501;SDS011;3792;47.740;7.606;2023-08-30T05:37:09;2.87;;;2.60;;
7501;SDS011;3792;47.740;7.606;2023-08-30T05:39:37;2.60;;;2.40;;
7501;SDS011;3792;47.740;7.606;2023-08-30T05:42:05;2.63;;;2.43;;
7501;SDS011;3792;47.740;7.606;2023-08-30T05:44:32;3.00;;;2.40;;
7501;SDS011;3792;47.740;7.606;2023-08-30T05:46:59;2.90;;;2.37;;
7501;SDS011;3792;47.740;7.606;2023-08-30T05:49:26;2.80;;;2.33;;
7501;SDS011;3792;47.740;7.606;2023-08-30T05:51:53;2.40;;;2.20;;
7501;SDS011;3792;47.740;7.606;2023-08-30T05:54:20;3.67;;;2.40;;
7501;SDS011;3792;47.740;7.606;2023-08-30T05:56:47;4.03;;;2.40;;
7501;SDS011;3792;47.740;7.606;2023-08-30T05:59:16;2.67;;;2.47;;
7501;SDS011;3792;47.740;7.606;2023-08-30T06:01:42;2.70;;;2.50;;
7501;SDS011;3792;47.740;7.606;2023-08-30T06:04:10;3.27;;;2.40;;
7501;SDS011;3792;47.740;7.606;2023-08-30T06:06:38;2.90;;;2.70;;
7501;SDS011;3792;47.740;7.606;2023-08-30T06:09:06;3.33;;;2.60;;
7501;SDS011;3792;47.740;7.606;2023-08-30T06:11:37;3.83;;;2.73;;
7501;SDS011;3792;47.740;7.606;2023-08-30T06:14:04;2.67;;;2.47;;
7501;SDS011;3792;47.740;7.606;2023-08-30T06:16:33;2.90;;;2.60;;
7501;SDS011;3792;47.740;7.606;2023-08-30T06:19:00;2.63;;;2.40;;
7501;SDS011;3792;47.740;7.606;2023-08-30T06:21:27;5.37;;;2.40;;
7501;SDS011;3792;47.740;7.606;2023-08-30T06:23:54;2.70;;;2.40;;
7501;SDS011;3792;47.740;7.606;2023-08-30T06:26:21;3.07;;;2.80;;
7501;SDS011;3792;47.740;7.606;2023-08-30T06:28:49;2.60;;;2.40;;
7501;SDS011;3792;47.740;7.606;2023-08-30T06:31:16;2.40;;;2.30;;
7501;SDS011;3792;47.740;7.606;2023-08-30T06:33:45;4.23;;;2.53;;
7501;SDS011;3792;47.740;7.606;2023-08-30T06:36:13;2.80;;;2.40;;
7501;SDS011;3792;47.740;7.606;2023-08-30T06:38:42;2.73;;;2.30;;
7501;SDS011;3792;47.740;7.606;2023-08-30T06:41:09;2.83;;;2.60;;
7501;SDS011;3792;47.740;7.606;2023-08-30T06:43:36;3.63;;;2.63;;
7501;SDS011;3792;47.740;7.606;2023-08-30T06:46:03;3.20;;;2.30;;
7501;SDS011;3792;47.740;7.606;2023-08-30T06:48:31;4.10;;;2.27;;
7501;SDS011;3792;47.740;7.606;2023-08-30T06:50:59;2.20;;;2.10;;
7501;SDS011;3792;47.740;7.606;2023-08-30T06:53:26;2.27;;;2.07;;
7501;SDS011;3792;47.740;7.606;2023-08-30T06:55:56;2.50;;;2.30;;
7501;SDS011;3792;47.740;7.606;2023-08-30T06:58:24;2.40;;;2.03;;
7501;SDS011;3792;47.740;7.606;2023-08-30T07:00:51;2.70;;;2.50;;
7501;SDS011;3792;47.740;7.606;2023-08-30T07:03:18;2.17;;;2.07;;
7501;SDS011;3792;47.740;7.606;2023-08-30T07:05:46;2.30;;;2.10;;
7501;SDS011;3792;47.740;7.606;2023-08-30T07:08:15;4.80;;;2.23;;
7501;SDS011;3792;47.740;7.606;2023-08-30T07:10:42;2.50;;;2.17;;
7501;SDS011;3792;47.740;7.606;2023-08-30T07:13:09;2.80;;;2.60;;
7501;SDS011;3792;47.740;7.606;2023-08-30T07:15:37;2.70;;;2.50;;
7501;SDS011;3792;47.740;7.606;2023-08-30T07:18:05;6.47;;;2.43;;
7501;SDS011;3792;47.740;7.606;2023-08-30T07:20:32;2.67;;;2.50;;
7501;SDS011;3792;47.740;7.606;2023-08-30T07:23:02;2.67;;;2.47;;
7501;SDS011;3792;47.740;7.606;2023-08-30T07:25:33;2.80;;;2.63;;
7501;SDS011;3792;47.740;7.606;2023-08-30T07:28:01;3.60;;;2.70;;
7501;SDS011;3792;47.740;7.606;2023-08-30T07:30:29;2.93;;;2.73;;
7501;SDS011;3792;47.740;7.606;2023-08-30T07:32:56;2.97;;;2.77;;
7501;SDS011;3792;47.740;7.606;2023-08-30T07:35:23;3.10;;;2.90;;
7501;SDS011;3792;47.740;7.606;2023-08-30T07:37:50;3.60;;;3.13;;
7501;SDS011;3792;47.740;7.606;2023-08-30T07:40:17;3.37;;;3.07;;
7501;SDS011;3792;47.740;7.606;2023-08-30T07:42:47;5.27;;;3.47;;
7501;SDS011;3792;47.740;7.606;2023-08-30T07:45:14;3.63;;;3.27;;
7501;SDS011;3792;47.740;7.606;2023-08-30T07:47:41;3.80;;;3.17;;
7501;SDS011;3792;47.740;7.606;2023-08-30T07:50:08;3.53;;;3.23;;
7501;SDS011;3792;47.740;7.606;2023-08-30T07:52:35;4.20;;;3.30;;
7501;SDS011;3792;47.740;7.606;2023-08-30T07:55:03;4.67;;;3.97;;
7501;SDS011;3792;47.740;7.606;2023-08-30T07:57:30;3.73;;;3.43;;
7501;SDS011;3792;47.740;7.606;2023-08-30T07:59:58;4.07;;;3.77;;
7501;SDS011;3792;47.740;7.606;2023-08-30T08:02:25;3.97;;;3.60;;
7501;SDS011;3792;47.740;7.606;2023-08-30T08:04:52;4.03;;;3.20;;
7501;SDS011;3792;47.740;7.606;2023-08-30T08:07:22;3.40;;;3.10;;
7501;SDS011;3792;47.740;7.606;2023-08-30T08:09:52;2.97;;;2.77;;
7501;SDS011;3792;47.740;7.606;2023-08-30T08:12:20;3.73;;;3.17;;
7501;SDS011;3792;47.740;7.606;2023-08-30T08:14:47;4.03;;;2.87;;
7501;SDS011;3792;47.740;7.606;2023-08-30T08:17:15;3.30;;;3.00;;
7501;SDS011;3792;47.740;7.606;2023-08-30T08:19:42;3.20;;;2.87;;
7501;SDS011;3792;47.740;7.606;2023-08-30T08:22:10;2.80;;;2.60;;
7501;SDS011;3792;47.740;7.606;2023-08-30T08:24:37;3.30;;;3.00;;
7501;SDS011;3792;47.740;7.606;2023-08-30T08:27:04;3.13;;;2.93;;
7501;SDS011;3792;47.740;7.606;2023-08-30T08:29:31;2.90;;;2.70;;
7501;SDS011;3792;47.740;7.606;2023-08-30T08:31:58;3.47;;;2.50;;
7501;SDS011;3792;47.740;7.606;2023-08-30T08:34:26;2.63;;;2.43;;
7501;SDS011;3792;47.740;7.606;2023-08-30T08:36:54;3.00;;;2.80;;
7501;SDS011;3792;47.740;7.606;2023-08-30T08:39:21;3.30;;;3.00;;
7501;SDS011;3792;47.740;7.606;2023-08-30T08:41:48;4.87;;;3.67;;
7501;SDS011;3792;47.740;7.606;2023-08-30T08:44:18;3.30;;;3.00;;
7501;SDS011;3792;47.740;7.606;2023-08-30T08:46:45;3.93;;;2.50;;
7501;SDS011;3792;47.740;7.606;2023-08-30T08:49:14;4.10;;;2.90;;
7501;SDS011;3792;47.740;7.606;2023-08-30T08:51:44;3.10;;;2.80;;
7501;SDS011;3792;47.740;7.606;2023-08-30T08:54:12;2.70;;;2.50;;
7501;SDS011;3792;47.740;7.606;2023-08-30T08:56:39;3.80;;;2.93;;
7501;SDS011;3792;47.740;7.606;2023-08-30T08:59:06;3.80;;;3.00;;
7501;SDS011;3792;47.740;7.606;2023-08-30T09:01:34;3.77;;;3.00;;
7501;SDS011;3792;47.740;7.606;2023-08-30T09:04:04;3.13;;;2.93;;
7501;SDS011;3792;47.740;7.606;2023-08-30T09:06:32;4.07;;;2.97;;
7501;SDS011;3792;47.740;7.606;2023-08-30T09:09:01;3.10;;;2.90;;
7501;SDS011;3792;47.740;7.606;2023-08-30T09:11:30;3.00;;;2.80;;
7501;SDS011;3792;47.740;7.606;2023-08-30T09:13:57;3.03;;;2.83;;
7501;SDS011;3792;47.740;7.606;2023-08-30T09:16:24;6.07;;;3.33;;
7501;SDS011;3792;47.740;7.606;2023-08-30T09:18:57;5.57;;;3.37;;
7501;SDS011;3792;47.740;7.606;2023-08-30T09:21:25;3.07;;;2.80;;
7501;SDS011;3792;47.740;7.606;2023-08-30T09:24:03;11.87;;;3.70;;
7501;SDS011;3792;47.740;7.606;2023-08-30T09:26:32;3.77;;;3.47;;
7501;SDS011;3792;47.740;7.606;2023-08-30T09:29:02;3.43;;;3.00;;
7501;SDS011;3792;47.740;7.606;2023-08-30T09:31:33;5.03;;;3.37;;
7501;SDS011;3792;47.740;7.606;2023-08-30T09:34:04;3.27;;;3.07;;
7501;SDS011;3792;47.740;7.606;2023-08-30T09:36:34;3.30;;;3.00;;
7501;SDS011;3792;47.740;7.606;2023-08-30T09:39:06;3.57;;;3.17;;
7501;SDS011;3792;47.740;7.606;2023-08-30T09:41:34;2.90;;;2.70;;
7501;SDS011;3792;47.740;7.606;2023-08-30T09:44:06;3.23;;;3.03;;
7501;SDS011;3792;47.740;7.606;2023-08-30T09:46:39;3.53;;;3.10;;
7501;SDS011;3792;47.740;7.606;2023-08-30T09:49:08;3.40;;;3.10;;
7501;SDS011;3792;47.740;7.606;2023-08-30T09:51:35;3.93;;;3.33;;
7501;SDS011;3792;47.740;7.606;2023-08-30T09:54:10;3.30;;;2.90;;
7501;SDS011;3792;47.740;7.606;2023-08-30T09:56:42;3.90;;;3.47;;
7501;SDS011;3792;47.740;7.606;2023-08-30T09:59:12;4.83;;;2.73;;
7501;SDS011;3792;47.740;7.606;2023-08-30T10:01:40;4.17;;;3.23;;
7501;SDS011;3792;47.740;7.606;2023-08-30T10:04:08;3.30;;;2.97;;
7501;SDS011;3792;47.740;7.606;2023-08-30T10:06:37;3.47;;;3.07;;
7501;SDS011;3792;47.740;7.606;2023-08-30T10:09:05;3.70;;;3.40;;
7501;SDS011;3792;47.740;7.606;2023-08-30T10:11:35;5.20;;;3.27;;
7501;SDS011;3792;47.740;7.606;2023-08-30T10:14:04;5.20;;;3.63;;
7501;SDS011;3792;47.740;7.606;2023-08-30T10:16:34;3.57;;;3.27;;
7501;SDS011;3792;47.740;7.606;2023-08-30T10:19:10;3.73;;;3.43;;
7501;SDS011;3792;47.740;7.606;2023-08-30T10:21:42;5.03;;;3.30;;
7501;SDS011;3792;47.740;7.606;2023-08-30T10:24:11;2.73;;;2.53;;
7501;SDS011;3792;47.740;7.606;2023-08-30T10:26:46;4.20;;;2.70;;
7501;SDS011;3792;47.740;7.606;2023-08-30T10:29:15;3.00;;;2.80;;
7501;SDS011;3792;47.740;7.606;2023-08-30T10:31:44;3.30;;;3.10;;
7501;SDS011;3792;47.740;7.606;2023-08-30T10:34:13;3.20;;;2.90;;
7501;SDS011;3792;47.740;7.606;2023-08-30T10:36:42;3.33;;;2.67;;
7501;SDS011;3792;47.740;7.606;2023-08-30T10:39:13;3.20;;;2.97;;
7501;SDS011;3792;47.740;7.606;2023-08-30T10:41:55;3.40;;;3.20;;
7501;SDS011;3792;47.740;7.606;2023-08-30T10:44:22;4.60;;;2.80;;
7501;SDS011;3792;47.740;7.606;2023-08-30T10:46:51;2.53;;;2.33;;
7501;SDS011;3792;47.740;7.606;2023-08-30T10:49:20;3.43;;;3.10;;
7501;SDS011;3792;47.740;7.606;2023-08-30T10:51:54;4.47;;;2.67;;
7501;SDS011;3792;47.740;7.606;2023-08-30T10:54:22;4.00;;;2.87;;
7501;SDS011;3792;47.740;7.606;2023-08-30T10:56:55;2.93;;;2.73;;
7501;SDS011;3792;47.740;7.606;2023-08-30T10:59:26;3.50;;;2.70;;
7501;SDS011;3792;47.740;7.606;2023-08-30T11:01:54;2.90;;;2.70;;
7501;SDS011;3792;47.740;7.606;2023-08-30T11:04:22;2.50;;;2.30;;
7501;SDS011;3792;47.740;7.606;2023-08-30T11:06:49;2.97;;;2.47;;
7501;SDS011;3792;47.740;7.606;2023-08-30T11:09:22;2.30;;;2.10;;
7501;SDS011;3792;47.740;7.606;2023-08-30T11:11:50;2.53;;;2.33;;
7501;SDS011;3792;47.740;7.606;2023-08-30T11:14:19;4.03;;;2.10;;
7501;SDS011;3792;47.740;7.606;2023-08-30T11:16:46;2.67;;;2.47;;
7501;SDS011;3792;47.740;7.606;2023-08-30T11:19:13;2.50;;;2.30;;
7501;SDS011;3792;47.740;7.606;2023-08-30T11:21:42;2.70;;;2.50;;
7501;SDS011;3792;47.740;7.606;2023-08-30T11:24:11;3.30;;;2.50;;
7501;SDS011;3792;47.740;7.606;2023-08-30T11:26:38;2.80;;;2.50;;
7501;SDS011;3792;47.740;7.606;2023-08-30T11:29:05;2.10;;;2.00;;
7501;SDS011;3792;47.740;7.606;2023-08-30T11:31:35;1.90;;;1.80;;
7501;SDS011;3792;47.740;7.606;2023-08-30T11:34:02;3.67;;;2.00;;
7501;SDS011;3792;47.740;7.606;2023-08-30T11:36:30;2.13;;;2.03;;
7501;SDS011;3792;47.740;7.606;2023-08-30T11:38:58;3.20;;;2.13;;
7501;SDS011;3792;47.740;7.606;2023-08-30T11:41:25;1.53;;;1.50;;
7501;SDS011;3792;47.740;7.606;2023-08-30T11:43:53;2.80;;;1.70;;
7501;SDS011;3792;47.740;7.606;2023-08-30T11:46:20;2.20;;;2.00;;
7501;SDS011;3792;47.740;7.606;2023-08-30T11:48:50;3.20;;;1.80;;
7501;SDS011;3792;47.740;7.606;2023-08-30T11:51:18;2.67;;;1.63;;
7501;SDS011;3792;47.740;7.606;2023-08-30T11:53:46;3.83;;;2.30;;
7501;SDS011;3792;47.740;7.606;2023-08-30T11:56:14;3.97;;;2.43;;
7501;SDS011;3792;47.740;7.606;2023-08-30T11:58:42;4.93;;;2.20;;
7501;SDS011;3792;47.740;7.606;2023-08-30T12:01:10;3.53;;;2.10;;
7501;SDS011;3792;47.740;7.606;2023-08-30T12:03:38;2.67;;;2.27;;
7501;SDS011;3792;47.740;7.606;2023-08-30T12:06:10;2.97;;;1.87;;
7501;SDS011;3792;47.740;7.606;2023-08-30T12:08:37;2.50;;;2.30;;
7501;SDS011;3792;47.740;7.606;2023-08-30T12:11:04;3.70;;;2.23;;
7501;SDS011;3792;47.740;7.606;2023-08-30T12:13:32;2.20;;;2.00;;
7501;SDS011;3792;47.740;7.606;2023-08-30T12:16:01;1.90;;;1.80;;
7501;SDS011;3792;47.740;7.606;2023-08-30T12:18:31;1.70;;;1.60;;
7501;SDS011;3792;47.740;7.606;2023-08-30T12:20:59;1.53;;;1.43;;
7501;SDS011;3792;47.740;7.606;2023-08-30T12:23:29;3.03;;;1.80;;
7501;SDS011;3792;47.740;7.606;2023-08-30T12:25:58;2.53;;;1.67;;
7501;SDS011;3792;47.740;7.606;2023-08-30T12:28:26;2.60;;;1.50;;
7501;SDS011;3792;47.740;7.606;2023-08-30T12:30:53;1.60;;;1.53;;
7501;SDS011;3792;47.740;7.606;2023-08-30T12:33:21;2.80;;;1.70;;
7501;SDS011;3792;47.740;7.606;2023-08-30T12:35:48;1.77;;;1.67;;
7501;SDS011;3792;47.740;7.606;2023-08-30T12:38:15;3.63;;;1.77;;
7501;SDS011;3792;47.740;7.606;2023-08-30T12:40:45;2.87;;;1.70;;
7501;SDS011;3792;47.740;7.606;2023-08-30T12:43:14;1.70;;;1.60;;
7501;SDS011;3792;47.740;7.606;2023-08-30T12:45:41;5.97;;;1.70;;
7501;SDS011;3792;47.740;7.606;2023-08-30T12:48:10;2.40;;;1.63;;
7501;SDS011;3792;47.740;7.606;2023-08-30T12:50:39;2.00;;;1.40;;
7501;SDS011;3792;47.740;7.606;2023-08-30T12:53:06;1.53;;;1.43;;
7501;SDS011;3792;47.740;7.606;2023-08-30T12:55:34;2.70;;;1.40;;
7501;SDS011;3792;47.740;7.606;2023-08-30T12:58:04;7.83;;;2.53;;
7501;SDS011;3792;47.740;7.606;2023-08-30T13:00:31;3.20;;;1.83;;
7501;SDS011;3792;47.740;7.606;2023-08-30T13:02:58;1.83;;;1.50;;
7501;SDS011;3792;47.740;7.606;2023-08-30T13:05:25;6.70;;;1.60;;
7501;SDS011;3792;47.740;7.606;2023-08-30T13:07:53;2.30;;;1.50;;
7501;SDS011;3792;47.740;7.606;2023-08-30T13:10:20;4.17;;;1.70;;
7501;SDS011;3792;47.740;7.606;2023-08-30T13:12:47;1.30;;;1.30;;
7501;SDS011;3792;47.740;7.606;2023-08-30T13:15:15;1.60;;;1.50;;
7501;SDS011;3792;47.740;7.606;2023-08-30T13:17:42;1.53;;;1.40;;
7501;SDS011;3792;47.740;7.606;2023-08-30T13:20:10;1.60;;;1.50;;
7501;SDS011;3792;47.740;7.606;2023-08-30T13:22:37;2.20;;;1.40;;
7501;SDS011;3792;47.740;7.606;2023-08-30T13:25:05;1.63;;;1.40;;
7501;SDS011;3792;47.740;7.606;2023-08-30T13:27:33;3.07;;;1.70;;
7501;SDS011;3792;47.740;7.606;2023-08-30T13:30:00;1.33;;;1.23;;
7501;SDS011;3792;47.740;7.606;2023-08-30T13:32:29;2.23;;;1.47;;
7501;SDS011;3792;47.740;7.606;2023-08-30T13:34:56;1.47;;;1.30;;
7501;SDS011;3792;47.740;7.606;2023-08-30T13:37:23;1.60;;;1.50;;
7501;SDS011;3792;47.740;7.606;2023-08-30T13:39:49;2.77;;;1.50;;
7501;SDS011;3792;47.740;7.606;2023-08-30T13:42:16;1.70;;;1.40;;
7501;SDS011;3792;47.740;7.606;2023-08-30T13:44:43;1.40;;;1.30;;
7501;SDS011;3792;47.740;7.606;2023-08-30T13:47:10;1.97;;;1.50;;
7501;SDS011;3792;47.740;7.606;2023-08-30T13:49:39;2.13;;;1.40;;
7501;SDS011;3792;47.740;7.606;2023-08-30T13:52:06;3.23;;;1.57;;
7501;SDS011;3792;47.740;7.606;2023-08-30T13:54:33;1.90;;;1.80;;
7501;SDS011;3792;47.740;7.606;2023-08-30T13:57:00;2.80;;;1.70;;
7501;SDS011;3792;47.740;7.606;2023-08-30T13:59:27;1.60;;;1.50;;
7501;SDS011;3792;47.740;7.606;2023-08-30T14:01:55;1.70;;;1.60;;
7501;SDS011;3792;47.740;7.606;2023-08-30T14:04:23;2.17;;;1.40;;
7501;SDS011;3792;47.740;7.606;2023-08-30T14:06:52;1.43;;;1.33;;
7501;SDS011;3792;47.740;7.606;2023-08-30T14:09:19;1.53;;;1.37;;
7501;SDS011;3792;47.740;7.606;2023-08-30T14:11:46;1.97;;;1.57;;
7501;SDS011;3792;47.740;7.606;2023-08-30T14:14:13;2.40;;;1.40;;
7501;SDS011;3792;47.740;7.606;2023-08-30T14:16:40;1.97;;;1.70;;
7501;SDS011;3792;47.740;7.606;2023-08-30T14:19:07;1.43;;;1.33;;
7501;SDS011;3792;47.740;7.606;2023-08-30T14:21:34;1.40;;;1.30;;
7501;SDS011;3792;47.740;7.606;2023-08-30T14:24:03;1.17;;;1.17;;
7501;SDS011;3792;47.740;7.606;2023-08-30T14:26:30;2.23;;;1.90;;
7501;SDS011;3792;47.740;7.606;2023-08-30T14:28:57;2.07;;;1.30;;
7501;SDS011;3792;47.740;7.606;2023-08-30T14:31:24;3.40;;;1.80;;
7501;SDS011;3792;47.740;7.606;2023-08-30T14:33:54;3.57;;;2.20;;
7501;SDS011;3792;47.740;7.606;2023-08-30T14:36:22;1.87;;;1.63;;
7501;SDS011;3792;47.740;7.606;2023-08-30T14:38:49;4.90;;;1.93;;
7501;SDS011;3792;47.740;7.606;2023-08-30T14:41:18;1.43;;;1.33;;
7501;SDS011;3792;47.740;7.606;2023-08-30T14:43:45;1.90;;;1.80;;
7501;SDS011;3792;47.740;7.606;2023-08-30T14:46:12;3.47;;;1.97;;
7501;SDS011;3792;47.740;7.606;2023-08-30T14:48:41;1.80;;;1.70;;
7501;SDS011;3792;47.740;7.606;2023-08-30T14:51:08;1.80;;;1.47;;
7501;SDS011;3792;47.740;7.606;2023-08-30T14:53:35;2.03;;;1.60;;
7501;SDS011;3792;47.740;7.606;2023-08-30T14:56:02;2.40;;;1.63;;
7501;SDS011;3792;47.740;7.606;2023-08-30T14:58:33;1.60;;;1.50;;
7501;SDS011;3792;47.740;7.606;2023-08-30T15:01:00;1.40;;;1.30;;
7501;SDS011;3792;47.740;7.606;2023-08-30T15:03:27;3.13;;;1.77;;
7501;SDS011;3792;47.740;7.606;2023-08-30T15:05:55;1.40;;;1.40;;
7501;SDS011;3792;47.740;7.606;2023-08-30T15:08:23;1.50;;;1.40;;
7501;SDS011;3792;47.740;7.606;2023-08-30T15:10:50;1.70;;;1.60;;
7501;SDS011;3792;47.740;7.606;2023-08-30T15:13:18;3.40;;;1.80;;
7501;SDS011;3792;47.740;7.606;2023-08-30T15:15:47;1.63;;;1.53;;
7501;SDS011;3792;47.740;7.606;2023-08-30T15:18:14;1.73;;;1.60;;
7501;SDS011;3792;47.740;7.606;2023-08-30T15:20:41;1.93;;;1.77;;